sensor_id;sensor_type;location;lat;lon;timestamp;P1;durP1;ratioP1;P2;durP2;ratioP2
14088;SDS011;7120;52.890;6.040;2022-07-17T00:01:54;7.43;;;4.90;;
14088;SDS011;7120;52.890;6.040;2022-07-17T00:04:19;6.47;;;4.20;;
14088;SDS011;7120;52.890;6.040;2022-07-17T00:06:45;8.70;;;4.90;;
14088;SDS011;7120;52.890;6.040;2022-07-17T00:09:10;11.40;;;4.90;;
14088;SDS011;7120;52.890;6.040;2022-07-17T00:11:35;11.47;;;4.53;;
14088;SDS011;7120;52.890;6.040;2022-07-17T00:14:01;8.43;;;4.73;;
14088;SDS011;7120;52.890;6.040;2022-07-17T00:16:27;6.33;;;4.53;;
14088;SDS011;7120;52.890;6.040;2022-07-17T00:18:52;5.87;;;4.60;;
14088;SDS011;7120;52.890;6.040;2022-07-17T00:21:18;6.87;;;4.67;;
14088;SDS011;7120;52.890;6.040;2022-07-17T00:23:43;6.40;;;4.80;;
14088;SDS011;7120;52.890;6.040;2022-07-17T00:26:09;7.37;;;4.97;;
14088;SDS011;7120;52.890;6.040;2022-07-17T00:28:34;7.23;;;4.80;;
14088;SDS011;7120;52.890;6.040;2022-07-17T00:31:00;7.07;;;4.63;;
14088;SDS011;7120;52.890;6.040;2022-07-17T00:33:26;8.37;;;4.97;;
14088;SDS011;7120;52.890;6.040;2022-07-17T00:35:51;6.43;;;4.83;;
14088;SDS011;7120;52.890;6.040;2022-07-17T00:38:16;7.33;;;5.20;;
14088;SDS011;7120;52.890;6.040;2022-07-17T00:40:42;8.03;;;5.10;;
14088;SDS011;7120;52.890;6.040;2022-07-17T00:43:08;7.10;;;5.37;;
14088;SDS011;7120;52.890;6.040;2022-07-17T00:45:34;8.13;;;5.10;;
14088;SDS011;7120;52.890;6.040;2022-07-17T00:48:00;6.63;;;5.10;;
14088;SDS011;7120;52.890;6.040;2022-07-17T00:50:31;9.77;;;5.27;;
14088;SDS011;7120;52.890;6.040;2022-07-17T00:52:58;9.63;;;5.23;;
14088;SDS011;7120;52.890;6.040;2022-07-17T00:55:24;9.90;;;4.77;;
14088;SDS011;7120;52.890;6.040;2022-07-17T00:57:50;7.63;;;5.13;;
14088;SDS011;7120;52.890;6.040;2022-07-17T01:00:17;9.53;;;5.63;;
14088;SDS011;7120;52.890;6.040;2022-07-17T01:02:46;8.17;;;5.13;;
14088;SDS011;7120;52.890;6.040;2022-07-17T01:05:18;10.27;;;5.33;;
14088;SDS011;7120;52.890;6.040;2022-07-17T01:07:45;8.10;;;5.60;;
14088;SDS011;7120;52.890;6.040;2022-07-17T01:10:11;8.30;;;5.20;;
14088;SDS011;7120;52.890;6.040;2022-07-17T01:12:37;6.67;;;5.80;;
14088;SDS011;7120;52.890;6.040;2022-07-17T01:15:05;7.60;;;5.43;;
14088;SDS011;7120;52.890;6.040;2022-07-17T01:17:31;8.27;;;5.40;;
14088;SDS011;7120;52.890;6.040;2022-07-17T01:19:56;10.87;;;6.40;;
14088;SDS011;7120;52.890;6.040;2022-07-17T01:22:22;11.17;;;6.00;;
14088;SDS011;7120;52.890;6.040;2022-07-17T01:24:47;8.13;;;5.50;;
14088;SDS011;7120;52.890;6.040;2022-07-17T01:27:13;6.43;;;5.13;;
14088;SDS011;7120;52.890;6.040;2022-07-17T01:29:39;11.47;;;5.53;;
14088;SDS011;7120;52.890;6.040;2022-07-17T01:32:04;7.50;;;5.53;;
14088;SDS011;7120;52.890;6.040;2022-07-17T01:34:31;9.40;;;5.60;;
14088;SDS011;7120;52.890;6.040;2022-07-17T01:36:56;7.53;;;5.60;;
14088;SDS011;7120;52.890;6.040;2022-07-17T01:39:22;8.20;;;5.83;;
14088;SDS011;7120;52.890;6.040;2022-07-17T01:42:08;8.87;;;6.03;;
14088;SDS011;7120;52.890;6.040;2022-07-17T01:44:34;8.27;;;6.00;;
14088;SDS011;7120;52.890;6.040;2022-07-17T01:47:00;9.87;;;5.10;;
14088;SDS011;7120;52.890;6.040;2022-07-17T01:49:25;8.10;;;5.83;;
14088;SDS011;7120;52.890;6.040;2022-07-17T01:51:51;8.40;;;5.40;;
14088;SDS011;7120;52.890;6.040;2022-07-17T01:54:16;7.37;;;4.93;;
14088;SDS011;7120;52.890;6.040;2022-07-17T01:56:41;6.00;;;4.60;;
14088;SDS011;7120;52.890;6.040;2022-07-17T01:59:07;7.10;;;4.77;;
14088;SDS011;7120;52.890;6.040;2022-07-17T02:01:32;7.07;;;4.70;;
14088;SDS011;7120;52.890;6.040;2022-07-17T02:03:58;6.20;;;4.70;;
14088;SDS011;7120;52.890;6.040;2022-07-17T02:06:23;7.97;;;4.37;;
14088;SDS011;7120;52.890;6.040;2022-07-17T02:08:48;9.17;;;4.93;;
14088;SDS011;7120;52.890;6.040;2022-07-17T02:11:16;7.67;;;4.90;;
14088;SDS011;7120;52.890;6.040;2022-07-17T02:13:44;10.07;;;5.30;;
14088;SDS011;7120;52.890;6.040;2022-07-17T02:16:09;5.77;;;4.30;;
14088;SDS011;7120;52.890;6.040;2022-07-17T02:18:36;9.73;;;4.97;;
14088;SDS011;7120;52.890;6.040;2022-07-17T02:21:01;5.37;;;4.70;;
14088;SDS011;7120;52.890;6.040;2022-07-17T02:23:27;5.63;;;5.03;;
14088;SDS011;7120;52.890;6.040;2022-07-17T02:25:53;7.50;;;4.90;;
14088;SDS011;7120;52.890;6.040;2022-07-17T02:28:19;6.10;;;4.47;;
14088;SDS011;7120;52.890;6.040;2022-07-17T02:30:45;9.30;;;5.30;;
14088;SDS011;7120;52.890;6.040;2022-07-17T02:33:10;6.57;;;4.80;;
14088;SDS011;7120;52.890;6.040;2022-07-17T02:35:36;6.37;;;4.90;;
14088;SDS011;7120;52.890;6.040;2022-07-17T02:38:01;7.20;;;4.40;;
14088;SDS011;7120;52.890;6.040;2022-07-17T02:40:27;8.20;;;4.97;;
14088;SDS011;7120;52.890;6.040;2022-07-17T02:42:52;5.93;;;4.80;;
14088;SDS011;7120;52.890;6.040;2022-07-17T02:45:17;6.87;;;5.17;;
14088;SDS011;7120;52.890;6.040;2022-07-17T02:47:46;11.10;;;5.10;;
14088;SDS011;7120;52.890;6.040;2022-07-17T02:50:12;11.50;;;5.67;;
14088;SDS011;7120;52.890;6.040;2022-07-17T02:52:37;8.30;;;5.40;;
14088;SDS011;7120;52.890;6.040;2022-07-17T02:55:03;8.13;;;5.10;;
14088;SDS011;7120;52.890;6.040;2022-07-17T02:57:29;7.47;;;5.80;;
14088;SDS011;7120;52.890;6.040;2022-07-17T02:59:55;9.03;;;5.30;;
14088;SDS011;7120;52.890;6.040;2022-07-17T03:02:20;9.03;;;5.10;;
14088;SDS011;7120;52.890;6.040;2022-07-17T03:04:45;7.53;;;5.47;;
14088;SDS011;7120;52.890;6.040;2022-07-17T03:07:11;8.27;;;5.10;;
14088;SDS011;7120;52.890;6.040;2022-07-17T03:09:36;7.23;;;5.43;;
14088;SDS011;7120;52.890;6.040;2022-07-17T03:12:02;9.00;;;5.27;;
14088;SDS011;7120;52.890;6.040;2022-07-17T03:14:27;6.47;;;5.43;;
14088;SDS011;7120;52.890;6.040;2022-07-17T03:16:52;8.73;;;5.10;;
14088;SDS011;7120;52.890;6.040;2022-07-17T03:19:18;6.67;;;4.70;;
14088;SDS011;7120;52.890;6.040;2022-07-17T03:21:44;8.10;;;5.63;;
14088;SDS011;7120;52.890;6.040;2022-07-17T03:24:09;7.60;;;5.43;;
14088;SDS011;7120;52.890;6.040;2022-07-17T03:26:34;9.67;;;5.60;;
14088;SDS011;7120;52.890;6.040;2022-07-17T03:29:00;9.83;;;5.70;;
14088;SDS011;7120;52.890;6.040;2022-07-17T03:31:25;7.53;;;5.47;;
14088;SDS011;7120;52.890;6.040;2022-07-17T03:33:50;7.40;;;5.67;;
14088;SDS011;7120;52.890;6.040;2022-07-17T03:36:16;8.37;;;5.97;;
14088;SDS011;7120;52.890;6.040;2022-07-17T03:38:41;9.37;;;6.80;;
14088;SDS011;7120;52.890;6.040;2022-07-17T03:41:06;7.40;;;6.13;;
14088;SDS011;7120;52.890;6.040;2022-07-17T03:43:32;7.67;;;5.50;;
14088;SDS011;7120;52.890;6.040;2022-07-17T03:45:57;7.13;;;5.70;;
14088;SDS011;7120;52.890;6.040;2022-07-17T03:48:22;9.93;;;5.97;;
14088;SDS011;7120;52.890;6.040;2022-07-17T03:50:47;7.20;;;5.50;;
14088;SDS011;7120;52.890;6.040;2022-07-17T03:53:13;7.50;;;5.43;;
14088;SDS011;7120;52.890;6.040;2022-07-17T03:55:38;7.77;;;5.50;;
14088;SDS011;7120;52.890;6.040;2022-07-17T03:58:04;9.83;;;6.27;;
14088;SDS011;7120;52.890;6.040;2022-07-17T04:00:29;7.30;;;5.43;;
14088;SDS011;7120;52.890;6.040;2022-07-17T04:02:54;8.43;;;5.90;;
14088;SDS011;7120;52.890;6.040;2022-07-17T04:05:20;8.47;;;5.90;;
14088;SDS011;7120;52.890;6.040;2022-07-17T04:07:45;6.23;;;5.20;;
14088;SDS011;7120;52.890;6.040;2022-07-17T04:10:12;7.47;;;5.67;;
14088;SDS011;7120;52.890;6.040;2022-07-17T04:12:40;7.00;;;5.80;;
14088;SDS011;7120;52.890;6.040;2022-07-17T04:15:06;8.20;;;5.67;;
14088;SDS011;7120;52.890;6.040;2022-07-17T04:17:33;6.30;;;5.40;;
14088;SDS011;7120;52.890;6.040;2022-07-17T04:19:59;7.87;;;5.63;;
14088;SDS011;7120;52.890;6.040;2022-07-17T04:22:24;7.93;;;5.70;;
14088;SDS011;7120;52.890;6.040;2022-07-17T04:24:50;7.30;;;6.30;;
14088;SDS011;7120;52.890;6.040;2022-07-17T04:27:16;8.43;;;6.07;;
14088;SDS011;7120;52.890;6.040;2022-07-17T04:29:41;8.33;;;5.73;;
14088;SDS011;7120;52.890;6.040;2022-07-17T04:32:07;10.07;;;6.10;;
14088;SDS011;7120;52.890;6.040;2022-07-17T04:34:33;6.87;;;5.80;;
14088;SDS011;7120;52.890;6.040;2022-07-17T04:36:59;9.47;;;5.70;;
14088;SDS011;7120;52.890;6.040;2022-07-17T04:39:25;6.67;;;5.73;;
14088;SDS011;7120;52.890;6.040;2022-07-17T04:41:50;6.50;;;5.70;;
14088;SDS011;7120;52.890;6.040;2022-07-17T04:44:16;6.40;;;5.70;;
14088;SDS011;7120;52.890;6.040;2022-07-17T04:46:42;8.70;;;5.60;;
14088;SDS011;7120;52.890;6.040;2022-07-17T04:49:08;7.40;;;5.60;;
14088;SDS011;7120;52.890;6.040;2022-07-17T04:51:33;7.13;;;5.60;;
14088;SDS011;7120;52.890;6.040;2022-07-17T04:53:59;6.60;;;5.90;;
14088;SDS011;7120;52.890;6.040;2022-07-17T04:56:24;5.77;;;5.13;;
14088;SDS011;7120;52.890;6.040;2022-07-17T04:58:50;6.20;;;5.07;;
14088;SDS011;7120;52.890;6.040;2022-07-17T05:01:15;5.90;;;5.07;;
14088;SDS011;7120;52.890;6.040;2022-07-17T05:03:40;7.20;;;5.30;;
14088;SDS011;7120;52.890;6.040;2022-07-17T05:06:06;6.57;;;4.93;;
14088;SDS011;7120;52.890;6.040;2022-07-17T05:08:31;6.93;;;4.80;;
14088;SDS011;7120;52.890;6.040;2022-07-17T05:10:58;6.70;;;4.67;;
14088;SDS011;7120;52.890;6.040;2022-07-17T05:13:23;7.30;;;4.80;;
14088;SDS011;7120;52.890;6.040;2022-07-17T05:15:48;6.07;;;4.27;;
14088;SDS011;7120;52.890;6.040;2022-07-17T05:18:14;5.67;;;4.40;;
14088;SDS011;7120;52.890;6.040;2022-07-17T05:20:40;6.10;;;4.20;;
14088;SDS011;7120;52.890;6.040;2022-07-17T05:23:06;5.43;;;4.40;;
14088;SDS011;7120;52.890;6.040;2022-07-17T05:25:31;4.50;;;4.10;;
14088;SDS011;7120;52.890;6.040;2022-07-17T05:27:57;6.03;;;4.47;;
14088;SDS011;7120;52.890;6.040;2022-07-17T05:30:22;5.77;;;5.10;;
14088;SDS011;7120;52.890;6.040;2022-07-17T05:32:48;4.90;;;4.00;;
14088;SDS011;7120;52.890;6.040;2022-07-17T05:35:13;5.17;;;3.90;;
14088;SDS011;7120;52.890;6.040;2022-07-17T05:37:39;4.47;;;3.67;;
14088;SDS011;7120;52.890;6.040;2022-07-17T05:40:04;5.70;;;3.90;;
14088;SDS011;7120;52.890;6.040;2022-07-17T05:42:30;6.00;;;3.80;;
14088;SDS011;7120;52.890;6.040;2022-07-17T05:44:56;5.30;;;3.97;;
14088;SDS011;7120;52.890;6.040;2022-07-17T05:47:21;6.17;;;3.70;;
14088;SDS011;7120;52.890;6.040;2022-07-17T05:49:46;4.77;;;3.67;;
14088;SDS011;7120;52.890;6.040;2022-07-17T05:52:12;3.80;;;3.50;;
14088;SDS011;7120;52.890;6.040;2022-07-17T05:54:37;4.97;;;3.60;;
14088;SDS011;7120;52.890;6.040;2022-07-17T05:57:02;3.83;;;3.53;;
14088;SDS011;7120;52.890;6.040;2022-07-17T05:59:28;6.30;;;3.47;;
14088;SDS011;7120;52.890;6.040;2022-07-17T06:01:54;3.33;;;3.03;;
14088;SDS011;7120;52.890;6.040;2022-07-17T06:04:19;6.03;;;3.70;;
14088;SDS011;7120;52.890;6.040;2022-07-17T06:06:45;5.40;;;3.80;;
14088;SDS011;7120;52.890;6.040;2022-07-17T06:09:10;3.77;;;3.03;;
14088;SDS011;7120;52.890;6.040;2022-07-17T06:11:35;5.93;;;3.57;;
14088;SDS011;7120;52.890;6.040;2022-07-17T06:14:01;5.40;;;3.20;;
14088;SDS011;7120;52.890;6.040;2022-07-17T06:16:26;6.77;;;3.73;;
14088;SDS011;7120;52.890;6.040;2022-07-17T06:18:52;3.60;;;2.87;;
14088;SDS011;7120;52.890;6.040;2022-07-17T06:21:17;3.73;;;3.00;;
14088;SDS011;7120;52.890;6.040;2022-07-17T06:23:42;4.43;;;3.00;;
14088;SDS011;7120;52.890;6.040;2022-07-17T06:26:08;5.33;;;2.90;;
14088;SDS011;7120;52.890;6.040;2022-07-17T06:28:33;5.37;;;2.67;;
14088;SDS011;7120;52.890;6.040;2022-07-17T06:30:58;4.27;;;2.10;;
14088;SDS011;7120;52.890;6.040;2022-07-17T06:33:24;5.30;;;2.37;;
14088;SDS011;7120;52.890;6.040;2022-07-17T06:35:49;3.77;;;2.03;;
14088;SDS011;7120;52.890;6.040;2022-07-17T06:38:14;3.03;;;1.50;;
14088;SDS011;7120;52.890;6.040;2022-07-17T06:40:40;3.23;;;1.97;;
14088;SDS011;7120;52.890;6.040;2022-07-17T06:43:05;6.10;;;1.97;;
14088;SDS011;7120;52.890;6.040;2022-07-17T06:45:34;4.40;;;1.80;;
14088;SDS011;7120;52.890;6.040;2022-07-17T06:47:59;5.30;;;1.73;;
14088;SDS011;7120;52.890;6.040;2022-07-17T06:50:25;2.90;;;1.77;;
14088;SDS011;7120;52.890;6.040;2022-07-17T06:52:51;5.07;;;1.80;;
14088;SDS011;7120;52.890;6.040;2022-07-17T06:55:16;5.17;;;1.83;;
14088;SDS011;7120;52.890;6.040;2022-07-17T06:57:41;1.93;;;1.40;;
14088;SDS011;7120;52.890;6.040;2022-07-17T07:00:07;3.97;;;1.40;;
14088;SDS011;7120;52.890;6.040;2022-07-17T07:02:34;4.20;;;1.40;;
14088;SDS011;7120;52.890;6.040;2022-07-17T07:04:59;3.17;;;1.30;;
14088;SDS011;7120;52.890;6.040;2022-07-17T07:07:25;2.07;;;1.30;;
14088;SDS011;7120;52.890;6.040;2022-07-17T07:09:50;3.40;;;1.40;;
14088;SDS011;7120;52.890;6.040;2022-07-17T07:12:16;5.57;;;1.70;;
14088;SDS011;7120;52.890;6.040;2022-07-17T07:14:41;3.80;;;1.37;;
14088;SDS011;7120;52.890;6.040;2022-07-17T07:17:07;1.80;;;0.97;;
14088;SDS011;7120;52.890;6.040;2022-07-17T07:19:32;4.63;;;1.40;;
14088;SDS011;7120;52.890;6.040;2022-07-17T07:21:58;5.67;;;1.40;;
14088;SDS011;7120;52.890;6.040;2022-07-17T07:24:25;4.10;;;1.60;;
14088;SDS011;7120;52.890;6.040;2022-07-17T07:26:50;4.03;;;1.40;;
14088;SDS011;7120;52.890;6.040;2022-07-17T07:29:19;2.73;;;1.43;;
14088;SDS011;7120;52.890;6.040;2022-07-17T07:31:44;4.17;;;1.60;;
14088;SDS011;7120;52.890;6.040;2022-07-17T07:34:09;3.83;;;1.40;;
14088;SDS011;7120;52.890;6.040;2022-07-17T07:36:35;4.67;;;1.33;;
14088;SDS011;7120;52.890;6.040;2022-07-17T07:39:00;3.73;;;1.30;;
14088;SDS011;7120;52.890;6.040;2022-07-17T07:41:25;1.40;;;0.97;;
14088;SDS011;7120;52.890;6.040;2022-07-17T07:43:51;2.47;;;1.40;;
14088;SDS011;7120;52.890;6.040;2022-07-17T07:46:16;4.23;;;1.40;;
14088;SDS011;7120;52.890;6.040;2022-07-17T07:48:42;2.67;;;1.23;;
14088;SDS011;7120;52.890;6.040;2022-07-17T07:51:08;2.43;;;1.20;;
14088;SDS011;7120;52.890;6.040;2022-07-17T07:53:34;2.93;;;1.17;;
14088;SDS011;7120;52.890;6.040;2022-07-17T07:56:00;6.00;;;1.50;;
14088;SDS011;7120;52.890;6.040;2022-07-17T07:58:25;4.20;;;1.30;;
14088;SDS011;7120;52.890;6.040;2022-07-17T08:00:51;2.87;;;1.37;;
14088;SDS011;7120;52.890;6.040;2022-07-17T08:03:16;3.60;;;1.20;;
14088;SDS011;7120;52.890;6.040;2022-07-17T08:05:42;4.83;;;1.33;;
14088;SDS011;7120;52.890;6.040;2022-07-17T08:08:08;4.23;;;1.50;;
14088;SDS011;7120;52.890;6.040;2022-07-17T08:10:33;4.80;;;1.60;;
14088;SDS011;7120;52.890;6.040;2022-07-17T08:12:59;2.47;;;1.47;;
14088;SDS011;7120;52.890;6.040;2022-07-17T08:15:24;2.47;;;1.00;;
14088;SDS011;7120;52.890;6.040;2022-07-17T08:17:50;3.10;;;1.30;;
14088;SDS011;7120;52.890;6.040;2022-07-17T08:20:16;2.53;;;1.30;;
14088;SDS011;7120;52.890;6.040;2022-07-17T08:22:43;3.47;;;1.30;;
14088;SDS011;7120;52.890;6.040;2022-07-17T08:25:10;3.37;;;1.17;;
14088;SDS011;7120;52.890;6.040;2022-07-17T08:27:36;2.23;;;1.07;;
14088;SDS011;7120;52.890;6.040;2022-07-17T08:30:03;3.77;;;1.50;;
14088;SDS011;7120;52.890;6.040;2022-07-17T08:32:30;3.23;;;1.47;;
14088;SDS011;7120;52.890;6.040;2022-07-17T08:34:55;3.23;;;1.53;;
14088;SDS011;7120;52.890;6.040;2022-07-17T08:37:20;4.67;;;1.33;;
14088;SDS011;7120;52.890;6.040;2022-07-17T08:39:46;3.80;;;1.50;;
14088;SDS011;7120;52.890;6.040;2022-07-17T08:42:11;3.23;;;1.50;;
14088;SDS011;7120;52.890;6.040;2022-07-17T08:44:41;2.43;;;1.37;;
14088;SDS011;7120;52.890;6.040;2022-07-17T08:47:06;4.20;;;1.60;;
14088;SDS011;7120;52.890;6.040;2022-07-17T08:49:33;3.47;;;1.50;;
14088;SDS011;7120;52.890;6.040;2022-07-17T08:52:03;4.07;;;1.40;;
14088;SDS011;7120;52.890;6.040;2022-07-17T08:54:29;3.23;;;1.40;;
14088;SDS011;7120;52.890;6.040;2022-07-17T08:56:56;3.90;;;1.10;;
14088;SDS011;7120;52.890;6.040;2022-07-17T08:59:22;4.30;;;1.43;;
14088;SDS011;7120;52.890;6.040;2022-07-17T09:01:47;4.60;;;1.50;;
14088;SDS011;7120;52.890;6.040;2022-07-17T09:04:13;3.00;;;1.47;;
14088;SDS011;7120;52.890;6.040;2022-07-17T09:06:38;2.40;;;1.33;;
14088;SDS011;7120;52.890;6.040;2022-07-17T09:09:05;3.03;;;1.40;;
14088;SDS011;7120;52.890;6.040;2022-07-17T09:11:43;2.40;;;1.40;;
14088;SDS011;7120;52.890;6.040;2022-07-17T09:14:14;5.97;;;1.73;;
14088;SDS011;7120;52.890;6.040;2022-07-17T09:16:50;5.53;;;1.60;;
14088;SDS011;7120;52.890;6.040;2022-07-17T09:19:37;2.57;;;1.23;;
14088;SDS011;7120;52.890;6.040;2022-07-17T09:22:10;2.92;;;1.73;;
14088;SDS011;7120;52.890;6.040;2022-07-17T09:24:37;3.13;;;1.30;;
14088;SDS011;7120;52.890;6.040;2022-07-17T09:27:15;4.05;;;1.42;;
14088;SDS011;7120;52.890;6.040;2022-07-17T09:29:50;3.97;;;1.60;;
14088;SDS011;7120;52.890;6.040;2022-07-17T09:32:24;3.50;;;1.65;;
14088;SDS011;7120;52.890;6.040;2022-07-17T09:34:51;3.33;;;1.30;;
14088;SDS011;7120;52.890;6.040;2022-07-17T09:37:21;3.53;;;1.23;;
14088;SDS011;7120;52.890;6.040;2022-07-17T09:39:48;2.78;;;1.25;;
14088;SDS011;7120;52.890;6.040;2022-07-17T09:42:21;2.63;;;1.60;;
14088;SDS011;7120;52.890;6.040;2022-07-17T09:45:04;4.97;;;1.70;;
14088;SDS011;7120;52.890;6.040;2022-07-17T09:47:33;2.42;;;1.35;;
14088;SDS011;7120;52.890;6.040;2022-07-17T09:50:00;2.65;;;1.60;;
14088;SDS011;7120;52.890;6.040;2022-07-17T09:52:28;4.38;;;1.73;;
14088;SDS011;7120;52.890;6.040;2022-07-17T09:54:55;2.53;;;1.38;;
14088;SDS011;7120;52.890;6.040;2022-07-17T09:57:27;2.97;;;1.48;;
14088;SDS011;7120;52.890;6.040;2022-07-17T09:59:55;2.83;;;1.50;;
14088;SDS011;7120;52.890;6.040;2022-07-17T10:02:23;3.13;;;1.33;;
14088;SDS011;7120;52.890;6.040;2022-07-17T10:04:49;2.78;;;1.38;;
14088;SDS011;7120;52.890;6.040;2022-07-17T10:07:16;3.30;;;1.60;;
14088;SDS011;7120;52.890;6.040;2022-07-17T10:09:42;2.22;;;1.10;;
14088;SDS011;7120;52.890;6.040;2022-07-17T10:12:08;3.30;;;1.50;;
14088;SDS011;7120;52.890;6.040;2022-07-17T10:14:34;2.60;;;1.17;;
14088;SDS011;7120;52.890;6.040;2022-07-17T10:17:13;1.88;;;1.40;;
14088;SDS011;7120;52.890;6.040;2022-07-17T10:19:49;2.20;;;1.58;;
14088;SDS011;7120;52.890;6.040;2022-07-17T10:22:21;3.30;;;1.35;;
14088;SDS011;7120;52.890;6.040;2022-07-17T10:24:54;2.85;;;1.50;;
14088;SDS011;7120;52.890;6.040;2022-07-17T10:27:22;1.67;;;1.20;;
14088;SDS011;7120;52.890;6.040;2022-07-17T10:30:50;2.17;;;1.30;;
14088;SDS011;7120;52.890;6.040;2022-07-17T10:33:04;2.47;;;1.35;;
14088;SDS011;7120;52.890;6.040;2022-07-17T10:35:39;4.65;;;1.50;;
14088;SDS011;7120;52.890;6.040;2022-07-17T10:38:11;3.45;;;1.50;;
14088;SDS011;7120;52.890;6.040;2022-07-17T10:40:38;3.60;;;1.50;;
14088;SDS011;7120;52.890;6.040;2022-07-17T10:43:04;3.15;;;1.50;;
14088;SDS011;7120;52.890;6.040;2022-07-17T10:45:35;1.50;;;1.30;;
14088;SDS011;7120;52.890;6.040;2022-07-17T10:53:27;2.85;;;1.42;;
14088;SDS011;7120;52.890;6.040;2022-07-17T10:55:58;1.98;;;1.30;;
14088;SDS011;7120;52.890;6.040;2022-07-17T10:58:29;3.20;;;1.80;;
14088;SDS011;7120;52.890;6.040;2022-07-17T11:03:27;4.38;;;1.70;;
14088;SDS011;7120;52.890;6.040;2022-07-17T11:05:53;3.83;;;1.48;;
14088;SDS011;7120;52.890;6.040;2022-07-17T11:08:18;3.08;;;1.30;;
14088;SDS011;7120;52.890;6.040;2022-07-17T11:10:45;5.65;;;1.70;;
14088;SDS011;7120;52.890;6.040;2022-07-17T11:13:14;4.25;;;1.58;;
14088;SDS011;7120;52.890;6.040;2022-07-17T11:15:45;2.70;;;1.48;;
14088;SDS011;7120;52.890;6.040;2022-07-17T11:18:15;4.75;;;1.73;;
14088;SDS011;7120;52.890;6.040;2022-07-17T11:20:52;5.93;;;2.03;;
14088;SDS011;7120;52.890;6.040;2022-07-17T11:23:23;4.03;;;1.55;;
14088;SDS011;7120;52.890;6.040;2022-07-17T11:25:51;2.45;;;1.60;;
14088;SDS011;7120;52.890;6.040;2022-07-17T11:28:43;3.70;;;1.63;;
14088;SDS011;7120;52.890;6.040;2022-07-17T11:31:16;4.82;;;1.90;;
14088;SDS011;7120;52.890;6.040;2022-07-17T11:33:50;4.65;;;1.80;;
14088;SDS011;7120;52.890;6.040;2022-07-17T11:38:49;1.90;;;1.35;;
14088;SDS011;7120;52.890;6.040;2022-07-17T11:41:17;3.42;;;1.70;;
14088;SDS011;7120;52.890;6.040;2022-07-17T11:43:43;2.95;;;1.80;;
14088;SDS011;7120;52.890;6.040;2022-07-17T11:46:10;2.78;;;1.55;;
14088;SDS011;7120;52.890;6.040;2022-07-17T11:48:35;3.17;;;1.73;;
14088;SDS011;7120;52.890;6.040;2022-07-17T11:51:01;2.15;;;1.73;;
14088;SDS011;7120;52.890;6.040;2022-07-17T11:53:33;3.35;;;1.90;;
14088;SDS011;7120;52.890;6.040;2022-07-17T11:56:00;13.32;;;4.18;;
14088;SDS011;7120;52.890;6.040;2022-07-17T11:58:26;3.17;;;2.13;;
14088;SDS011;7120;52.890;6.040;2022-07-17T12:01:04;3.40;;;2.05;;
14088;SDS011;7120;52.890;6.040;2022-07-17T12:03:30;2.80;;;1.90;;
14088;SDS011;7120;52.890;6.040;2022-07-17T12:05:55;6.85;;;2.15;;
14088;SDS011;7120;52.890;6.040;2022-07-17T12:08:21;2.65;;;1.90;;
14088;SDS011;7120;52.890;6.040;2022-07-17T12:10:47;3.85;;;2.10;;
14088;SDS011;7120;52.890;6.040;2022-07-17T12:13:12;3.33;;;2.20;;
14088;SDS011;7120;52.890;6.040;2022-07-17T12:15:39;2.90;;;2.08;;
14088;SDS011;7120;52.890;6.040;2022-07-17T12:18:07;1.95;;;1.83;;
14088;SDS011;7120;52.890;6.040;2022-07-17T12:20:54;3.03;;;2.25;;
14088;SDS011;7120;52.890;6.040;2022-07-17T12:23:25;3.90;;;2.47;;
14088;SDS011;7120;52.890;6.040;2022-07-17T12:25:52;2.95;;;2.63;;
14088;SDS011;7120;52.890;6.040;2022-07-17T12:28:31;3.42;;;2.63;;
14088;SDS011;7120;52.890;6.040;2022-07-17T12:30:58;3.75;;;2.03;;
14088;SDS011;7120;52.890;6.040;2022-07-17T12:33:23;4.20;;;2.47;;
14088;SDS011;7120;52.890;6.040;2022-07-17T12:35:48;3.63;;;2.40;;
14088;SDS011;7120;52.890;6.040;2022-07-17T12:38:14;2.83;;;2.58;;
14088;SDS011;7120;52.890;6.040;2022-07-17T12:40:40;2.28;;;2.08;;
14088;SDS011;7120;52.890;6.040;2022-07-17T12:43:05;3.05;;;2.33;;
14088;SDS011;7120;52.890;6.040;2022-07-17T12:45:31;3.03;;;2.75;;
14088;SDS011;7120;52.890;6.040;2022-07-17T12:47:56;2.67;;;2.45;;
14088;SDS011;7120;52.890;6.040;2022-07-17T12:50:21;2.90;;;2.55;;
14088;SDS011;7120;52.890;6.040;2022-07-17T12:52:47;2.90;;;2.58;;
14088;SDS011;7120;52.890;6.040;2022-07-17T12:55:13;3.47;;;2.83;;
14088;SDS011;7120;52.890;6.040;2022-07-17T12:57:38;3.10;;;2.50;;
14088;SDS011;7120;52.890;6.040;2022-07-17T13:00:04;2.40;;;2.17;;
14088;SDS011;7120;52.890;6.040;2022-07-17T13:02:29;3.15;;;2.80;;
14088;SDS011;7120;52.890;6.040;2022-07-17T13:04:55;3.35;;;2.42;;
14088;SDS011;7120;52.890;6.040;2022-07-17T13:07:21;2.65;;;2.45;;
14088;SDS011;7120;52.890;6.040;2022-07-17T13:09:46;3.00;;;2.70;;
14088;SDS011;7120;52.890;6.040;2022-07-17T13:12:11;2.88;;;2.53;;
14088;SDS011;7120;52.890;6.040;2022-07-17T13:14:37;3.53;;;2.47;;
14088;SDS011;7120;52.890;6.040;2022-07-17T13:17:02;3.67;;;3.08;;
14088;SDS011;7120;52.890;6.040;2022-07-17T13:19:27;3.10;;;2.88;;
14088;SDS011;7120;52.890;6.040;2022-07-17T13:21:53;3.42;;;3.13;;
14088;SDS011;7120;52.890;6.040;2022-07-17T13:24:19;3.20;;;2.95;;
14088;SDS011;7120;52.890;6.040;2022-07-17T13:26:44;4.82;;;3.80;;
14088;SDS011;7120;52.890;6.040;2022-07-17T13:29:10;3.65;;;3.35;;
14088;SDS011;7120;52.890;6.040;2022-07-17T13:31:35;4.60;;;3.85;;
14088;SDS011;7120;52.890;6.040;2022-07-17T13:34:01;3.90;;;3.45;;
14088;SDS011;7120;52.890;6.040;2022-07-17T13:36:27;3.45;;;3.15;;
14088;SDS011;7120;52.890;6.040;2022-07-17T13:38:52;5.07;;;3.33;;
14088;SDS011;7120;52.890;6.040;2022-07-17T13:41:17;3.83;;;3.53;;
14088;SDS011;7120;52.890;6.040;2022-07-17T13:43:43;4.00;;;3.42;;
14088;SDS011;7120;52.890;6.040;2022-07-17T13:46:08;3.80;;;3.08;;
14088;SDS011;7120;52.890;6.040;2022-07-17T13:48:33;3.75;;;3.33;;
14088;SDS011;7120;52.890;6.040;2022-07-17T13:50:59;3.67;;;3.22;;
14088;SDS011;7120;52.890;6.040;2022-07-17T13:53:24;3.60;;;3.30;;
14088;SDS011;7120;52.890;6.040;2022-07-17T13:55:50;3.70;;;3.40;;
14088;SDS011;7120;52.890;6.040;2022-07-17T13:58:15;3.90;;;3.42;;
14088;SDS011;7120;52.890;6.040;2022-07-17T14:00:40;3.72;;;3.40;;
14088;SDS011;7120;52.890;6.040;2022-07-17T14:03:06;4.00;;;3.63;;
14088;SDS011;7120;52.890;6.040;2022-07-17T14:05:31;3.42;;;3.13;;
14088;SDS011;7120;52.890;6.040;2022-07-17T14:07:56;4.10;;;3.40;;
14088;SDS011;7120;52.890;6.040;2022-07-17T14:10:22;3.70;;;3.40;;
14088;SDS011;7120;52.890;6.040;2022-07-17T14:12:47;3.90;;;3.50;;
14088;SDS011;7120;52.890;6.040;2022-07-17T14:15:13;4.75;;;3.92;;
14088;SDS011;7120;52.890;6.040;2022-07-17T14:17:38;3.70;;;3.40;;
14088;SDS011;7120;52.890;6.040;2022-07-17T14:20:05;5.43;;;3.42;;
14088;SDS011;7120;52.890;6.040;2022-07-17T14:22:31;4.55;;;3.42;;
14088;SDS011;7120;52.890;6.040;2022-07-17T14:24:56;4.57;;;3.47;;
14088;SDS011;7120;52.890;6.040;2022-07-17T14:27:21;4.57;;;4.03;;
14088;SDS011;7120;52.890;6.040;2022-07-17T14:29:47;4.22;;;3.85;;
14088;SDS011;7120;52.890;6.040;2022-07-17T14:32:13;4.05;;;3.58;;
14088;SDS011;7120;52.890;6.040;2022-07-17T14:34:39;3.58;;;3.28;;
14088;SDS011;7120;52.890;6.040;2022-07-17T14:37:04;3.75;;;3.42;;
14088;SDS011;7120;52.890;6.040;2022-07-17T14:39:32;4.80;;;4.20;;
14088;SDS011;7120;52.890;6.040;2022-07-17T14:41:58;4.18;;;3.47;;
14088;SDS011;7120;52.890;6.040;2022-07-17T14:44:23;3.78;;;3.47;;
14088;SDS011;7120;52.890;6.040;2022-07-17T14:46:49;3.90;;;3.50;;
14088;SDS011;7120;52.890;6.040;2022-07-17T14:49:14;4.43;;;4.03;;
14088;SDS011;7120;52.890;6.040;2022-07-17T14:51:39;4.97;;;3.58;;
14088;SDS011;7120;52.890;6.040;2022-07-17T14:54:05;5.25;;;3.65;;
14088;SDS011;7120;52.890;6.040;2022-07-17T14:56:30;5.40;;;3.10;;
14088;SDS011;7120;52.890;6.040;2022-07-17T14:58:55;4.40;;;4.00;;
14088;SDS011;7120;52.890;6.040;2022-07-17T15:01:21;4.22;;;3.35;;
14088;SDS011;7120;52.890;6.040;2022-07-17T15:03:46;3.67;;;3.38;;
14088;SDS011;7120;52.890;6.040;2022-07-17T15:06:12;3.92;;;3.53;;
14088;SDS011;7120;52.890;6.040;2022-07-17T15:08:37;3.88;;;3.47;;